Wednesday, September 03, 2014
07:08 UTC
  |  Log In   |  Register Free
Airport Search:

Norwood Memorial Airport
(KOWD)

FAA data valid effective July 24, 2014 until September 18, 2014 (unless otherwise noted).

 
 
 
 
 
 
 
 
 
 
 
 
 
 

Current Aviation Weather for Norwood Memorial Airport (KOWD)

The most recent METAR observation for KOWD was updated at: 0553 UTC
METAR Summary (Translated METAR)
KOWD
030553Z 23007KT 10SM CLR 25/22 A2971 RMK AO2 SLP061 T02500217 10267 20222 58014
KBOS
(12.7 nm NE from KOWD)
030554Z 22008KT 10SM CLR 24/22 A2970 RMK AO2 SLP058 T02440217 10267 20239 57015
TAF Summary (Translated TAF)
KBOS
(12.7 nm NE from KOWD)
030538Z 0306/0412 21009KT P6SM SCT130 FM031100 28012KT P6SM SCT250 FM032200 28008KT P6SM SKC FM040900 30004KT P6SM SKC
KBED
(17.5 nm NW from KOWD)
030538Z 0306/0406 22007KT P6SM BKN090 FM030700 23007KT P6SM -SHRA BKN100 FM030800 25007KT P6SM BKN250 FM031200 29008KT P6SM SCT250 FM040300 VRB03KT P6SM SKC
  Airport Weather Conditions for KOWD

 Current Weather at OWD
77° F
Fair
Southwest winds at 8.1 mph
OWD NOAA Radar

Pressure: 29.71 in
Humidity: 82%
Wind: Southwest at 8.1 MPH (7 KT)
Dew Point: 71.1°F
Visibility: 10.00 mi


Airport Weather Forecast for KOWD

Translated METAR and TAF for KOWD
Translated METAR for KOWD (0702 UTC 03 September 2014)
found at http://aviationweather.gov/adds/metars/
 
METAR text: KOWD 030653Z 27005KT 10SM FEW049 24/21 A2972 RMK AO2 SLP063 T02440211
Conditions at: KOWD (NORWOOD , MA, US) observed 0653 UTC 03 September 2014
Temperature: 24.4°C (76°F)
Dewpoint: 21.1°C (70°F) [RH = 82%]
Pressure (altimeter): 29.72 inches Hg (1006.5 mb)
[Sea-level pressure: 1006.3 mb]
Winds: from the W (270 degrees) at 6 MPH (5 knots; 2.6 m/s)
Visibility: 10 or more miles (16+ km)
Ceiling: at least 12,000 feet AGL
Clouds: few clouds at 4900 feet AGL
Weather: no significant weather observed at this time
Translated TAF for KOWD

There is no translated TAF available for this airport

Find All Airport Services Find A Hotel Find A Rental Car Find A Golf Course Find A Restaurant $100 Hamburger



FBO's on the Field
FBO Company Facility Photos Services Transportation Aviation Fuel Prices: Prices include tax
Catering Weather Repair Courtesy Rental Type 100LL JetA JetA+ MOGAS 8087
 
FlightLevel Aviation

Currently rated 2.7 by 2 people
FS:Shell
Last Updated: Aug-28
Login to update fuel prices
SS:
Contact FlightLevel AviationMore FBO Information
 
Add another FBO Facility Photos Catering Weather Repair Courtesy Rental Type 100LL JetA JetA+ MOGAS 8087
Services Transportation Aviation Fuel Prices: Prices include tax


GlobalAir.com Airport Resource Center model-print
model-print
model-print
model-print